createdAt,value
2023-03-13T00:00:16.000Z,998.8
2023-03-13T00:01:32.000Z,998.9
2023-03-13T00:02:48.000Z,998.9
2023-03-13T00:04:05.000Z,998.8
2023-03-13T00:05:21.000Z,998.9
2023-03-13T00:06:37.000Z,998.9
2023-03-13T00:07:53.000Z,998.8
2023-03-13T00:09:10.000Z,998.9
2023-03-13T00:10:26.000Z,998.8
2023-03-13T00:11:42.000Z,998.8
2023-03-13T00:12:58.000Z,998.8
2023-03-13T00:14:15.000Z,998.7
2023-03-13T00:15:30.000Z,998.7
2023-03-13T00:16:46.000Z,998.7
2023-03-13T00:18:02.000Z,998.6
2023-03-13T00:19:19.000Z,998.6
2023-03-13T00:20:35.000Z,998.6
2023-03-13T00:21:51.000Z,998.6
2023-03-13T00:23:07.000Z,998.6
2023-03-13T00:24:23.000Z,998.5
2023-03-13T00:25:40.000Z,998.5
2023-03-13T00:26:56.000Z,998.5
2023-03-13T00:28:12.000Z,998.5
2023-03-13T00:29:28.000Z,998.5
2023-03-13T00:30:45.000Z,998.5
2023-03-13T00:32:00.000Z,998.4
2023-03-13T00:33:16.000Z,998.4
2023-03-13T00:34:32.000Z,998.3
2023-03-13T00:35:49.000Z,998.4
2023-03-13T00:37:05.000Z,998.4
2023-03-13T00:38:21.000Z,998.4
2023-03-13T00:39:37.000Z,998.3
2023-03-13T00:40:53.000Z,998.4
2023-03-13T00:42:10.000Z,998.3
2023-03-13T00:43:26.000Z,998.4
2023-03-13T00:44:42.000Z,998.3
2023-03-13T00:45:58.000Z,998.3
2023-03-13T00:47:15.000Z,998.3
2023-03-13T00:48:30.000Z,998.2
2023-03-13T00:49:46.000Z,998.2
2023-03-13T00:51:02.000Z,998.1
2023-03-13T00:52:19.000Z,998.1
2023-03-13T00:53:35.000Z,998.1
2023-03-13T00:54:51.000Z,998.1
2023-03-13T00:56:07.000Z,998
2023-03-13T00:57:24.000Z,998
2023-03-13T00:58:40.000Z,997.9
2023-03-13T00:59:56.000Z,997.9
2023-03-13T01:01:12.000Z,997.9
2023-03-13T01:02:28.000Z,997.9
2023-03-13T01:03:45.000Z,997.9
2023-03-13T01:05:00.000Z,997.9
2023-03-13T01:06:16.000Z,997.9
2023-03-13T01:07:32.000Z,997.8
2023-03-13T01:08:49.000Z,997.9
2023-03-13T01:10:05.000Z,997.8
2023-03-13T01:11:21.000Z,997.9
2023-03-13T01:12:37.000Z,997.9
2023-03-13T01:13:54.000Z,997.8
2023-03-13T01:15:10.000Z,997.7
2023-03-13T01:16:26.000Z,997.7
2023-03-13T01:17:42.000Z,997.7
2023-03-13T01:18:59.000Z,997.6
2023-03-13T01:20:15.000Z,997.6
2023-03-13T01:21:30.000Z,997.5
2023-03-13T01:22:46.000Z,997.5
2023-03-13T01:24:03.000Z,997.5
2023-03-13T01:25:19.000Z,997.4
2023-03-13T01:26:35.000Z,997.3
2023-03-13T01:27:51.000Z,997.4
2023-03-13T01:29:07.000Z,997.3
2023-03-13T01:30:24.000Z,997.3
2023-03-13T01:31:40.000Z,997.2
2023-03-13T01:32:56.000Z,997.3
2023-03-13T01:34:12.000Z,997.2
2023-03-13T01:35:29.000Z,997.2
2023-03-13T01:36:45.000Z,997.1
2023-03-13T01:38:00.000Z,997.1
2023-03-13T01:39:16.000Z,997.1
2023-03-13T01:40:33.000Z,997
2023-03-13T01:41:49.000Z,997.1
2023-03-13T01:43:05.000Z,997.1
2023-03-13T01:44:21.000Z,996.9
2023-03-13T01:45:37.000Z,997
2023-03-13T01:46:54.000Z,996.9
2023-03-13T01:48:10.000Z,996.9
2023-03-13T01:49:26.000Z,996.9
2023-03-13T01:50:42.000Z,996.8
2023-03-13T01:51:59.000Z,996.7
2023-03-13T01:53:15.000Z,996.8
2023-03-13T01:54:30.000Z,996.6
2023-03-13T01:57:03.000Z,996.6
2023-03-13T01:58:19.000Z,996.5
2023-03-13T01:59:35.000Z,996.4
2023-03-13T02:00:51.000Z,996.4
2023-03-13T02:02:08.000Z,996.3
2023-03-13T02:03:24.000Z,996.3
2023-03-13T02:04:40.000Z,996.3
2023-03-13T02:05:56.000Z,996.3
2023-03-13T02:07:12.000Z,996.1
2023-03-13T02:08:29.000Z,996.2
2023-03-13T02:09:45.000Z,996.2
2023-03-13T02:11:00.000Z,996
2023-03-13T02:12:16.000Z,996
2023-03-13T02:13:33.000Z,996
2023-03-13T02:14:49.000Z,995.9
2023-03-13T02:16:05.000Z,995.9
2023-03-13T02:17:21.000Z,995.9
2023-03-13T02:18:38.000Z,995.9
2023-03-13T02:19:54.000Z,995.7
2023-03-13T02:21:10.000Z,995.7
2023-03-13T02:22:26.000Z,995.6
2023-03-13T02:23:43.000Z,995.6
2023-03-13T02:24:59.000Z,995.6
2023-03-13T02:26:15.000Z,995.6
2023-03-13T02:27:30.000Z,995.5
2023-03-13T02:28:46.000Z,995.5
2023-03-13T02:30:03.000Z,995.4
2023-03-13T02:31:19.000Z,995.4
2023-03-13T02:32:35.000Z,995.3
2023-03-13T02:33:51.000Z,995.3
2023-03-13T02:35:08.000Z,995.3
2023-03-13T02:36:24.000Z,995.2
2023-03-13T02:37:40.000Z,995.2
2023-03-13T02:38:56.000Z,995.2
2023-03-13T02:40:13.000Z,995.1
2023-03-13T02:41:29.000Z,995.1
2023-03-13T02:42:44.000Z,995.1
2023-03-13T02:43:59.000Z,995
2023-03-13T02:45:16.000Z,995
2023-03-13T02:46:31.000Z,995
2023-03-13T02:47:46.000Z,995
2023-03-13T02:49:02.000Z,995
2023-03-13T02:50:19.000Z,994.9
2023-03-13T02:51:35.000Z,995
2023-03-13T02:52:51.000Z,995
2023-03-13T02:54:07.000Z,994.9
2023-03-13T02:55:23.000Z,994.9
2023-03-13T02:56:40.000Z,994.9
2023-03-13T02:57:56.000Z,994.8
2023-03-13T02:59:11.000Z,994.8
2023-03-13T03:00:27.000Z,994.8
2023-03-13T03:01:44.000Z,994.9
2023-03-13T03:03:00.000Z,994.8
2023-03-13T03:04:16.000Z,994.8
2023-03-13T03:05:32.000Z,994.8
2023-03-13T03:06:49.000Z,994.8
2023-03-13T03:08:05.000Z,994.7
2023-03-13T03:09:21.000Z,994.7
2023-03-13T03:10:37.000Z,994.7
2023-03-13T03:11:54.000Z,994.8
2023-03-13T03:13:09.000Z,994.6
2023-03-13T03:14:24.000Z,994.7
2023-03-13T03:15:39.000Z,994.7
2023-03-13T03:16:55.000Z,994.6
2023-03-13T03:18:11.000Z,994.6
2023-03-13T03:19:27.000Z,994.6
2023-03-13T03:20:43.000Z,994.6
2023-03-13T03:22:00.000Z,994.5
2023-03-13T03:23:16.000Z,994.5
2023-03-13T03:24:32.000Z,994.4
2023-03-13T03:25:48.000Z,994.4
2023-03-13T03:27:04.000Z,994.3
2023-03-13T03:28:21.000Z,994.4
2023-03-13T03:29:37.000Z,994.3
2023-03-13T03:30:53.000Z,994.3
2023-03-13T03:32:09.000Z,994.3
2023-03-13T03:33:25.000Z,994.2
2023-03-13T03:34:41.000Z,994.1
2023-03-13T03:35:57.000Z,994.1
2023-03-13T03:37:13.000Z,994.1
2023-03-13T03:38:30.000Z,994.1
2023-03-13T03:39:46.000Z,994.1
2023-03-13T03:41:02.000Z,994.1
2023-03-13T03:42:17.000Z,994
2023-03-13T03:43:33.000Z,994
2023-03-13T03:44:49.000Z,994
2023-03-13T03:46:04.000Z,993.9
2023-03-13T03:47:19.000Z,993.8
2023-03-13T03:48:36.000Z,993.9
2023-03-13T03:49:52.000Z,993.9
2023-03-13T03:51:08.000Z,993.9
2023-03-13T03:52:24.000Z,993.9
2023-03-13T03:53:40.000Z,993.8
2023-03-13T03:54:57.000Z,994
2023-03-13T03:56:13.000Z,993.8
2023-03-13T03:57:29.000Z,993.9
2023-03-13T03:58:45.000Z,993.9
2023-03-13T04:00:02.000Z,993.9
2023-03-13T04:01:18.000Z,993.9
2023-03-13T04:02:34.000Z,993.9
2023-03-13T04:03:49.000Z,993.9
2023-03-13T04:05:06.000Z,993.9
2023-03-13T04:06:22.000Z,993.8
2023-03-13T04:07:38.000Z,993.8
2023-03-13T04:08:54.000Z,993.9
2023-03-13T04:10:11.000Z,993.9
2023-03-13T04:11:27.000Z,993.9
2023-03-13T04:12:43.000Z,993.8
2023-03-13T04:13:58.000Z,993.8
2023-03-13T04:15:14.000Z,993.8
2023-03-13T04:16:30.000Z,993.8
2023-03-13T04:17:46.000Z,993.8
2023-03-13T04:19:02.000Z,993.7
2023-03-13T04:20:18.000Z,993.8
2023-03-13T04:21:34.000Z,993.7
2023-03-13T04:22:49.000Z,993.7
2023-03-13T04:24:05.000Z,993.7
2023-03-13T04:25:21.000Z,993.8
2023-03-13T04:26:38.000Z,993.7
2023-03-13T04:27:54.000Z,993.6
2023-03-13T04:29:10.000Z,993.7
2023-03-13T04:30:26.000Z,993.6
2023-03-13T04:31:43.000Z,993.6
2023-03-13T04:32:59.000Z,993.6
2023-03-13T04:34:15.000Z,993.5
2023-03-13T04:35:31.000Z,993.6
2023-03-13T04:36:48.000Z,993.6
2023-03-13T04:38:04.000Z,993.6
2023-03-13T04:39:19.000Z,993.5
2023-03-13T04:40:35.000Z,993.4
2023-03-13T04:41:51.000Z,993.4
2023-03-13T04:43:08.000Z,993.5
2023-03-13T04:44:24.000Z,993.4
2023-03-13T04:45:40.000Z,993.4
2023-03-13T04:46:56.000Z,993.5
2023-03-13T04:48:13.000Z,993.3
2023-03-13T04:49:29.000Z,993.4
2023-03-13T04:50:45.000Z,993.4
2023-03-13T04:52:01.000Z,993.4
2023-03-13T04:53:18.000Z,993.4
2023-03-13T04:54:34.000Z,993.4
2023-03-13T04:55:49.000Z,993.4
2023-03-13T04:57:05.000Z,993.3
2023-03-13T04:58:22.000Z,993.3
2023-03-13T04:59:38.000Z,993.3
2023-03-13T05:00:54.000Z,993.4
2023-03-13T05:02:10.000Z,993.3
2023-03-13T05:03:26.000Z,993.3
2023-03-13T05:04:43.000Z,993.2
2023-03-13T05:05:58.000Z,993.3
2023-03-13T05:07:13.000Z,993.2
2023-03-13T05:08:29.000Z,993.2
2023-03-13T05:09:46.000Z,993.2
2023-03-13T05:11:02.000Z,993.1
2023-03-13T05:12:18.000Z,993.2
2023-03-13T05:13:34.000Z,993.2
2023-03-13T05:14:50.000Z,993.1
2023-03-13T05:16:05.000Z,993.2
2023-03-13T05:17:21.000Z,993.1
2023-03-13T05:18:37.000Z,993.1
2023-03-13T05:19:54.000Z,993.1
2023-03-13T05:21:10.000Z,993.1
2023-03-13T05:22:26.000Z,993.1
2023-03-13T05:23:42.000Z,993.1
2023-03-13T05:24:59.000Z,993.1
2023-03-13T05:26:15.000Z,993.1
2023-03-13T05:27:31.000Z,993.2
2023-03-13T05:28:47.000Z,993.1
2023-03-13T05:30:03.000Z,993
2023-03-13T05:31:20.000Z,993.1
2023-03-13T05:32:35.000Z,992.9
2023-03-13T05:33:51.000Z,992.8
2023-03-13T05:35:07.000Z,992.8
2023-03-13T05:36:24.000Z,992.8
2023-03-13T05:37:40.000Z,992.8
2023-03-13T05:38:56.000Z,992.9
2023-03-13T05:40:12.000Z,992.8
2023-03-13T05:41:29.000Z,992.9
2023-03-13T05:42:45.000Z,992.8
2023-03-13T05:44:01.000Z,992.8
2023-03-13T05:45:17.000Z,992.9
2023-03-13T05:46:34.000Z,992.9
2023-03-13T05:47:50.000Z,992.9
2023-03-13T05:49:05.000Z,992.9
2023-03-13T05:50:21.000Z,992.9
2023-03-13T05:51:37.000Z,992.9
2023-03-13T05:52:54.000Z,993
2023-03-13T05:54:10.000Z,992.9
2023-03-13T05:55:26.000Z,993
2023-03-13T05:56:42.000Z,992.9
2023-03-13T05:57:59.000Z,992.8
2023-03-13T05:59:15.000Z,992.9
2023-03-13T06:00:31.000Z,992.9
2023-03-13T06:01:47.000Z,992.9
2023-03-13T06:03:04.000Z,992.9
2023-03-13T06:04:20.000Z,992.9
2023-03-13T06:05:35.000Z,992.9
2023-03-13T06:06:51.000Z,992.9
2023-03-13T06:08:08.000Z,992.8
2023-03-13T06:09:24.000Z,992.9
2023-03-13T06:10:40.000Z,992.8
2023-03-13T06:11:56.000Z,992.8
2023-03-13T06:13:12.000Z,992.8
2023-03-13T06:14:29.000Z,992.8
2023-03-13T06:15:45.000Z,992.8
2023-03-13T06:17:01.000Z,992.7
2023-03-13T06:18:17.000Z,992.7
2023-03-13T06:19:34.000Z,992.6
2023-03-13T06:22:06.000Z,992.7
2023-03-13T06:23:21.000Z,992.6
2023-03-13T06:24:38.000Z,992.7
2023-03-13T06:25:54.000Z,992.7
2023-03-13T06:27:10.000Z,992.8
2023-03-13T06:28:26.000Z,992.7
2023-03-13T06:29:43.000Z,992.6
2023-03-13T06:30:59.000Z,992.6
2023-03-13T06:32:15.000Z,992.6
2023-03-13T06:33:31.000Z,992.6
2023-03-13T06:34:47.000Z,992.6
2023-03-13T06:36:04.000Z,992.7
2023-03-13T06:37:20.000Z,992.7
2023-03-13T06:38:36.000Z,992.7
2023-03-13T06:39:51.000Z,992.7
2023-03-13T06:41:08.000Z,992.7
2023-03-13T06:42:24.000Z,992.7
2023-03-13T06:43:40.000Z,992.7
2023-03-13T06:44:56.000Z,992.7
2023-03-13T06:46:13.000Z,992.6
2023-03-13T06:47:29.000Z,992.6
2023-03-13T06:48:45.000Z,992.6
2023-03-13T06:50:01.000Z,992.6
2023-03-13T06:51:18.000Z,992.7
2023-03-13T06:52:34.000Z,992.6
2023-03-13T06:53:50.000Z,992.6
2023-03-13T06:55:06.000Z,992.6
2023-03-13T06:56:21.000Z,992.6
2023-03-13T06:57:38.000Z,992.7
2023-03-13T06:58:54.000Z,992.7
2023-03-13T07:00:10.000Z,992.7
2023-03-13T07:01:26.000Z,992.7
2023-03-13T07:02:43.000Z,992.6
2023-03-13T07:03:59.000Z,992.7
2023-03-13T07:05:15.000Z,992.7
2023-03-13T07:06:31.000Z,992.7
2023-03-13T07:07:48.000Z,992.7
2023-03-13T07:09:04.000Z,992.6
2023-03-13T07:10:20.000Z,992.6
2023-03-13T07:11:36.000Z,992.6
2023-03-13T07:12:52.000Z,992.7
2023-03-13T07:14:07.000Z,992.6
2023-03-13T07:15:23.000Z,992.6
2023-03-13T07:16:39.000Z,992.5
2023-03-13T07:17:55.000Z,992.6
2023-03-13T07:19:12.000Z,992.6
2023-03-13T07:20:28.000Z,992.5
2023-03-13T07:21:44.000Z,992.6
2023-03-13T07:23:00.000Z,992.5
2023-03-13T07:24:17.000Z,992.5
2023-03-13T07:25:33.387Z,992.5
2023-03-13T07:26:49.000Z,992.4
2023-03-13T07:28:05.000Z,992.6
2023-03-13T07:29:22.000Z,992.4
2023-03-13T07:30:37.000Z,992.5
2023-03-13T07:31:53.000Z,992.4
2023-03-13T07:33:09.000Z,992.4
2023-03-13T07:34:26.000Z,992.3
2023-03-13T07:35:42.000Z,992.4
2023-03-13T07:36:58.000Z,992.2
2023-03-13T07:38:14.000Z,992.1
2023-03-13T07:39:30.000Z,992.3
2023-03-13T07:40:47.000Z,992.1
2023-03-13T07:42:03.000Z,992.2
2023-03-13T07:43:19.000Z,992.1
2023-03-13T07:44:35.000Z,992.1
2023-03-13T07:45:52.000Z,992.2
2023-03-13T07:47:07.000Z,992.3
2023-03-13T07:48:23.000Z,992.2
2023-03-13T07:49:39.000Z,992.1
2023-03-13T07:50:56.000Z,992.2
2023-03-13T07:52:12.000Z,992.1
2023-03-13T07:53:28.000Z,992
2023-03-13T07:54:44.000Z,992.1
2023-03-13T07:56:01.000Z,992.2
2023-03-13T07:57:17.000Z,992.3
2023-03-13T07:58:33.000Z,992.2
2023-03-13T07:59:49.000Z,992.2
2023-03-13T08:01:05.000Z,992.1
2023-03-13T08:02:22.000Z,992.2
2023-03-13T08:03:37.000Z,992.1
2023-03-13T08:04:53.000Z,992.1
2023-03-13T08:06:09.000Z,992.1
2023-03-13T08:07:26.000Z,992.2
2023-03-13T08:08:42.382Z,992.1
2023-03-13T08:09:58.000Z,992.1
2023-03-13T08:11:14.000Z,992.2
2023-03-13T08:12:31.000Z,992.1
2023-03-13T08:13:47.000Z,992.1
2023-03-13T08:15:03.000Z,992.1
2023-03-13T08:16:19.000Z,992.2
2023-03-13T08:17:36.000Z,992.2
2023-03-13T08:18:52.000Z,992.1
2023-03-13T08:21:23.000Z,992.1
2023-03-13T08:22:39.000Z,992.1
2023-03-13T08:23:56.000Z,992.1
2023-03-13T08:25:12.000Z,992.1
2023-03-13T08:26:28.000Z,992.1
2023-03-13T08:27:44.000Z,992.1
2023-03-13T08:29:01.000Z,992.2
2023-03-13T08:30:17.000Z,992.1
2023-03-13T08:31:33.000Z,992.1
2023-03-13T08:32:49.000Z,992
2023-03-13T08:34:06.000Z,992.1
2023-03-13T08:35:22.000Z,992
2023-03-13T08:36:37.000Z,992.1
2023-03-13T08:37:53.000Z,992.1
2023-03-13T08:39:10.000Z,992.1
2023-03-13T08:40:26.000Z,992.1
2023-03-13T08:41:42.000Z,992
2023-03-13T08:42:58.000Z,992
2023-03-13T08:44:14.000Z,992.1
2023-03-13T08:45:31.000Z,992.2
2023-03-13T08:46:47.000Z,992
2023-03-13T08:48:03.000Z,992.1
2023-03-13T08:49:19.000Z,992.2
2023-03-13T08:50:36.000Z,992.1
2023-03-13T08:51:52.000Z,991.9
2023-03-13T08:53:07.000Z,992.2
2023-03-13T08:54:23.000Z,992.1
2023-03-13T08:55:40.000Z,992.3
2023-03-13T08:56:56.000Z,992.2
2023-03-13T08:58:12.000Z,992.1
2023-03-13T08:59:28.000Z,992
2023-03-13T09:00:45.000Z,992.1
2023-03-13T09:02:01.000Z,992.1
2023-03-13T09:03:17.000Z,992.1
2023-03-13T09:04:33.000Z,992.2
2023-03-13T09:05:49.000Z,992.1
2023-03-13T09:07:06.000Z,992.1
2023-03-13T09:08:22.000Z,992.1
2023-03-13T09:09:37.000Z,992.1
2023-03-13T09:10:53.000Z,992
2023-03-13T09:12:10.000Z,991.9
2023-03-13T09:13:26.000Z,992.1
2023-03-13T09:14:42.000Z,992
2023-03-13T09:15:58.000Z,992.1
2023-03-13T09:17:15.000Z,992
2023-03-13T09:18:31.000Z,992.2
2023-03-13T09:19:47.000Z,992
2023-03-13T09:21:03.000Z,992
2023-03-13T09:22:20.000Z,991.9
2023-03-13T09:23:36.000Z,991.9
2023-03-13T09:24:52.000Z,991.9
2023-03-13T09:26:07.000Z,992
2023-03-13T09:27:23.000Z,991.9
2023-03-13T09:28:40.000Z,992
2023-03-13T09:29:56.000Z,991.8
2023-03-13T09:31:12.000Z,991.8
2023-03-13T09:32:28.000Z,991.9
2023-03-13T09:33:45.000Z,991.8
2023-03-13T09:35:01.000Z,991.7
2023-03-13T09:36:17.000Z,991.7
2023-03-13T09:37:33.000Z,991.7
2023-03-13T09:38:50.000Z,991.7
2023-03-13T09:40:06.000Z,991.6
2023-03-13T09:41:22.000Z,991.7
2023-03-13T09:42:37.000Z,991.6
2023-03-13T09:43:54.000Z,991.5
2023-03-13T09:45:10.000Z,991.4
2023-03-13T09:46:26.000Z,991.5
2023-03-13T09:47:42.000Z,991.5
2023-03-13T09:48:58.000Z,991.4
2023-03-13T09:50:15.000Z,991.6
2023-03-13T09:51:31.000Z,991.5
2023-03-13T09:52:47.000Z,991.4
2023-03-13T09:55:20.000Z,991.3
2023-03-13T09:56:36.000Z,991.3
2023-03-13T09:57:52.000Z,991.4
2023-03-13T09:59:07.000Z,991.2
2023-03-13T10:00:24.000Z,991.3
2023-03-13T10:01:40.000Z,991.4
2023-03-13T10:02:56.000Z,991.4
2023-03-13T10:04:12.000Z,991.3
2023-03-13T10:05:28.000Z,991.3
2023-03-13T10:06:45.000Z,991.3
2023-03-13T10:08:01.000Z,991.2
2023-03-13T10:09:17.000Z,991.4
2023-03-13T10:10:33.000Z,991.4
2023-03-13T10:11:50.000Z,991.4
2023-03-13T10:13:06.000Z,991.4
2023-03-13T10:14:22.000Z,991.3
2023-03-13T10:15:37.000Z,991.8
2023-03-13T10:16:54.000Z,991.2
2023-03-13T10:18:10.000Z,991.3
2023-03-13T10:19:26.000Z,991.3
2023-03-13T10:20:42.000Z,991.1
2023-03-13T10:21:59.000Z,991.2
2023-03-13T10:23:15.000Z,991.1
2023-03-13T10:24:31.000Z,991.1
2023-03-13T10:25:47.000Z,991.1
2023-03-13T10:27:03.000Z,991.1
2023-03-13T10:28:20.000Z,991.1
2023-03-13T10:29:36.000Z,991.1
2023-03-13T10:30:52.000Z,991.2
2023-03-13T10:32:07.000Z,991
2023-03-13T10:33:24.000Z,991.1
2023-03-13T10:34:40.000Z,991
2023-03-13T10:35:56.000Z,991.1
2023-03-13T10:37:12.000Z,991.1
2023-03-13T10:38:29.000Z,991
2023-03-13T10:39:45.000Z,991
2023-03-13T10:41:01.000Z,991
2023-03-13T10:42:17.000Z,991
2023-03-13T10:43:34.000Z,991.1
2023-03-13T10:44:50.000Z,990.9
2023-03-13T10:46:06.000Z,990.9
2023-03-13T10:47:22.000Z,990.8
2023-03-13T10:48:37.000Z,990.9
2023-03-13T10:49:54.000Z,991
2023-03-13T10:51:10.000Z,990.8
2023-03-13T10:53:42.000Z,990.7
2023-03-13T10:54:59.000Z,990.7
2023-03-13T10:56:15.000Z,990.6
2023-03-13T10:58:47.000Z,990.6
2023-03-13T11:00:04.000Z,990.8
2023-03-13T11:01:20.000Z,990.6
2023-03-13T11:02:36.000Z,990.8
2023-03-13T11:03:52.000Z,990.6
2023-03-13T11:05:08.000Z,990.5
2023-03-13T11:06:23.000Z,990.6
2023-03-13T11:07:39.000Z,990.6
2023-03-13T11:08:55.000Z,990.7
2023-03-13T11:10:12.000Z,990.6
2023-03-13T11:11:28.000Z,990.7
2023-03-13T11:12:43.000Z,990.6
2023-03-13T11:13:58.000Z,990.6
2023-03-13T11:15:14.000Z,990.5
2023-03-13T11:16:31.000Z,990.4
2023-03-13T11:17:47.000Z,990.6
2023-03-13T11:19:03.000Z,990.3
2023-03-13T11:20:19.000Z,990.2
2023-03-13T11:21:36.000Z,990.4
2023-03-13T11:22:52.000Z,990.4
2023-03-13T11:24:08.000Z,990.3
2023-03-13T11:25:24.000Z,990.2
2023-03-13T11:26:41.000Z,990.2
2023-03-13T11:27:57.000Z,990.3
2023-03-13T11:29:12.000Z,990.3
2023-03-13T11:30:28.000Z,990.2
2023-03-13T11:31:45.000Z,990.3
2023-03-13T11:33:01.000Z,990.1
2023-03-13T11:34:17.000Z,990
2023-03-13T11:35:33.000Z,990.1
2023-03-13T11:36:49.000Z,990
2023-03-13T11:38:06.000Z,990
2023-03-13T11:39:22.000Z,990.1
2023-03-13T11:40:38.000Z,990.1
2023-03-13T11:41:54.000Z,990.1
2023-03-13T11:43:11.000Z,990.1
2023-03-13T11:44:27.000Z,990
2023-03-13T11:45:42.000Z,990
2023-03-13T11:46:58.000Z,990
2023-03-13T11:48:15.000Z,990.1
2023-03-13T11:49:31.000Z,990
2023-03-13T11:50:47.000Z,990.1
2023-03-13T11:52:03.000Z,990.1
2023-03-13T11:53:20.000Z,990
2023-03-13T11:54:36.000Z,990
2023-03-13T11:55:52.000Z,989.9
2023-03-13T11:57:08.000Z,989.9
2023-03-13T11:58:24.000Z,989.9
2023-03-13T11:59:41.000Z,989.8
2023-03-13T12:00:57.000Z,989.8
2023-03-13T12:02:12.000Z,989.7
2023-03-13T12:03:28.000Z,989.8
2023-03-13T12:04:45.000Z,990
2023-03-13T12:06:01.000Z,989.7
2023-03-13T12:07:17.000Z,989.7
2023-03-13T12:08:33.000Z,989.8
2023-03-13T12:09:50.000Z,989.9
2023-03-13T12:11:06.000Z,989.6
2023-03-13T12:12:22.000Z,989.6
2023-03-13T12:13:38.000Z,989.7
2023-03-13T12:14:55.000Z,989.6
2023-03-13T12:16:11.000Z,989.6
2023-03-13T12:17:27.000Z,989.6
2023-03-13T12:18:42.000Z,989.6
2023-03-13T12:19:58.000Z,989.4
2023-03-13T12:21:15.000Z,989.5
2023-03-13T12:22:31.000Z,989.4
2023-03-13T12:23:47.000Z,989.5
2023-03-13T12:25:03.000Z,989.6
2023-03-13T12:26:20.000Z,989.4
2023-03-13T12:27:36.000Z,989.5
2023-03-13T12:28:52.000Z,989.5
2023-03-13T12:30:07.000Z,989.5
2023-03-13T12:31:23.000Z,989.4
2023-03-13T12:32:39.000Z,989.3
2023-03-13T12:33:55.000Z,989.4
2023-03-13T12:35:11.000Z,989.3
2023-03-13T12:36:28.000Z,989.3
2023-03-13T12:37:44.000Z,989.2
2023-03-13T12:39:00.000Z,989.1
2023-03-13T12:40:16.000Z,989.1
2023-03-13T12:41:32.000Z,989
2023-03-13T12:42:49.000Z,989.1
2023-03-13T12:44:05.000Z,989.2
2023-03-13T12:45:21.000Z,989
2023-03-13T12:46:37.000Z,989.1
2023-03-13T12:47:53.000Z,989.1
2023-03-13T12:50:25.000Z,989
2023-03-13T12:51:41.000Z,988.8
2023-03-13T12:52:58.000Z,989
2023-03-13T12:54:14.000Z,989
2023-03-13T12:55:30.000Z,989
2023-03-13T12:56:46.000Z,989
2023-03-13T12:58:02.000Z,989
2023-03-13T12:59:17.000Z,989.1
2023-03-13T13:00:33.000Z,989
2023-03-13T13:01:49.000Z,988.9
2023-03-13T13:03:06.000Z,988.8
2023-03-13T13:04:21.000Z,988.9
2023-03-13T13:05:36.000Z,989.1
2023-03-13T13:06:52.000Z,988.8
2023-03-13T13:08:08.000Z,989.1
2023-03-13T13:09:25.000Z,988.9
2023-03-13T13:10:41.000Z,988.8
2023-03-13T13:11:57.000Z,988.9
2023-03-13T13:13:13.000Z,988.7
2023-03-13T13:14:30.000Z,988.8
2023-03-13T13:15:46.000Z,988.8
2023-03-13T13:17:02.000Z,988.8
2023-03-13T13:18:18.000Z,988.9
2023-03-13T13:19:35.000Z,988.9
2023-03-13T13:20:51.000Z,988.9
2023-03-13T13:22:06.000Z,988.9
2023-03-13T13:23:22.000Z,988.9
2023-03-13T13:24:39.000Z,988.8
2023-03-13T13:25:55.000Z,988.7
2023-03-13T13:27:11.000Z,988.7
2023-03-13T13:28:27.000Z,988.8
2023-03-13T13:29:43.000Z,988.6
2023-03-13T13:31:00.000Z,988.7
2023-03-13T13:32:16.000Z,988.6
2023-03-13T13:33:32.000Z,988.5
2023-03-13T13:34:48.000Z,988.5
2023-03-13T13:36:05.000Z,988.4
2023-03-13T13:37:21.000Z,988.5
2023-03-13T13:38:36.000Z,988.5
2023-03-13T13:39:52.000Z,988.7
2023-03-13T13:41:09.000Z,988.7
2023-03-13T13:42:25.000Z,988.5
2023-03-13T13:43:41.000Z,988.7
2023-03-13T13:44:57.000Z,988.6
2023-03-13T13:46:14.000Z,988.7
2023-03-13T13:47:30.000Z,988.5
2023-03-13T13:48:46.000Z,988.7
2023-03-13T13:50:02.000Z,988.7
2023-03-13T13:51:18.000Z,988.7
2023-03-13T13:52:35.000Z,988.6
2023-03-13T13:53:51.000Z,988.7
2023-03-13T13:55:06.000Z,988.6
2023-03-13T13:56:22.000Z,988.6
2023-03-13T13:57:39.000Z,988.7
2023-03-13T13:58:55.000Z,988.7
2023-03-13T14:00:11.000Z,988.6
2023-03-13T14:01:27.000Z,988.4
2023-03-13T14:02:44.000Z,988.5
2023-03-13T14:04:00.000Z,988.6
2023-03-13T14:05:16.000Z,988.5
2023-03-13T14:06:32.000Z,988.6
2023-03-13T14:09:05.000Z,988.5
2023-03-13T14:10:21.000Z,988.5
2023-03-13T14:11:36.000Z,988.5
2023-03-13T14:12:52.000Z,988.5
2023-03-13T14:14:09.000Z,988.4
2023-03-13T14:15:25.000Z,988.5
2023-03-13T14:16:41.000Z,988.5
2023-03-13T14:17:57.000Z,988.4
2023-03-13T14:19:14.000Z,988.5
2023-03-13T14:20:30.000Z,988.4
2023-03-13T14:21:46.000Z,988.3
2023-03-13T14:23:01.000Z,988.5
2023-03-13T14:24:17.000Z,988.3
2023-03-13T14:25:32.000Z,988.3
2023-03-13T14:26:47.000Z,988.3
2023-03-13T14:28:03.000Z,988.3
2023-03-13T14:29:20.000Z,988.4
2023-03-13T14:30:36.000Z,988.2
2023-03-13T14:31:52.000Z,988.1
2023-03-13T14:33:08.000Z,988
2023-03-13T14:34:25.000Z,988.1
2023-03-13T14:35:41.000Z,988.1
2023-03-13T14:36:57.000Z,988.1
2023-03-13T14:38:13.000Z,988
2023-03-13T14:39:29.000Z,988.2
2023-03-13T14:40:46.000Z,988.1
2023-03-13T14:42:02.000Z,988.2
2023-03-13T14:43:17.000Z,988.2
2023-03-13T14:44:33.000Z,988.1
2023-03-13T14:45:50.000Z,988.1
2023-03-13T14:47:06.000Z,988
2023-03-13T14:48:22.000Z,987.9
2023-03-13T14:49:38.000Z,988
2023-03-13T14:50:55.000Z,987.9
2023-03-13T14:52:10.000Z,988.2
2023-03-13T14:53:25.000Z,988
2023-03-13T14:54:41.000Z,987.9
2023-03-13T14:55:57.000Z,987.8
2023-03-13T14:57:12.000Z,987.8
2023-03-13T14:58:28.000Z,987.7
2023-03-13T14:59:44.000Z,987.7
2023-03-13T15:01:01.000Z,987.7
2023-03-13T15:02:17.000Z,987.8
2023-03-13T15:03:33.000Z,987.7
2023-03-13T15:04:49.000Z,987.7
2023-03-13T15:06:05.000Z,987.8
2023-03-13T15:07:22.000Z,987.6
2023-03-13T15:08:38.000Z,987.6
2023-03-13T15:09:54.000Z,987.5
2023-03-13T15:11:10.000Z,987.6
2023-03-13T15:12:27.000Z,987.4
2023-03-13T15:13:42.000Z,987.5
2023-03-13T15:14:58.000Z,987.4
2023-03-13T15:16:14.000Z,987.4
2023-03-13T15:17:31.000Z,987.5
2023-03-13T15:18:47.000Z,987.5
2023-03-13T15:20:03.000Z,987.3
2023-03-13T15:21:19.000Z,987.4
2023-03-13T15:22:36.000Z,987.2
2023-03-13T15:23:52.000Z,987.1
2023-03-13T15:25:08.000Z,987.2
2023-03-13T15:26:24.000Z,987.2
2023-03-13T15:27:39.000Z,987.2
2023-03-13T15:28:55.000Z,987.3
2023-03-13T15:30:11.000Z,987.3
2023-03-13T15:31:26.000Z,987.3
2023-03-13T15:32:42.000Z,987.2
2023-03-13T15:33:58.000Z,987.5
2023-03-13T15:35:14.000Z,987.1
2023-03-13T15:36:30.000Z,987.2
2023-03-13T15:37:46.000Z,987.1
2023-03-13T15:39:03.000Z,987.1
2023-03-13T15:40:19.000Z,987.2
2023-03-13T15:41:35.000Z,987.1
2023-03-13T15:42:51.000Z,987.2
2023-03-13T15:44:07.000Z,987.4
2023-03-13T15:45:23.000Z,987
2023-03-13T15:46:39.000Z,987
2023-03-13T15:47:55.000Z,987
2023-03-13T15:49:12.000Z,987.1
2023-03-13T15:50:28.000Z,987
2023-03-13T15:51:44.000Z,987
2023-03-13T15:53:00.000Z,987.1
2023-03-13T15:54:16.000Z,987
2023-03-13T15:55:33.000Z,987
2023-03-13T15:56:49.000Z,987
2023-03-13T15:58:04.000Z,986.8
2023-03-13T15:59:19.000Z,986.8
2023-03-13T16:00:36.000Z,986.8
2023-03-13T16:01:51.000Z,986.8
2023-03-13T16:03:06.000Z,986.8
2023-03-13T16:04:22.000Z,986.8
2023-03-13T16:05:39.000Z,986.8
2023-03-13T16:06:55.000Z,986.8
2023-03-13T16:08:11.000Z,986.8
2023-03-13T16:09:27.000Z,986.7
2023-03-13T16:10:44.000Z,986.6
2023-03-13T16:12:00.000Z,986.7
2023-03-13T16:13:16.000Z,986.7
2023-03-13T16:14:32.000Z,986.6
2023-03-13T16:15:49.000Z,986.4
2023-03-13T16:17:05.000Z,986.4
2023-03-13T16:18:21.000Z,986.5
2023-03-13T16:19:36.000Z,986.5
2023-03-13T16:20:52.000Z,986.4
2023-03-13T16:22:09.000Z,986.4
2023-03-13T16:23:25.000Z,986.5
2023-03-13T16:24:41.000Z,986.4
2023-03-13T16:25:57.000Z,986.5
2023-03-13T16:27:14.000Z,986.5
2023-03-13T16:28:29.000Z,986.5
2023-03-13T16:29:44.000Z,986.4
2023-03-13T16:32:16.000Z,986.4
2023-03-13T16:33:31.000Z,986.2
2023-03-13T16:34:46.000Z,986.2
2023-03-13T16:36:02.000Z,986.1
2023-03-13T16:37:19.000Z,986.3